LFOH/LEH METAR and TAF weather

Enter ICAO airport designator
Station Type Date Time Source
LFOH METAR 2020/07/05 03:00 UTC NOAA

LFOH 050300Z AUTO 24011KT 9999 OVC009 17/16 Q1015


Station Type Date Time Source
LFOH Decoded METAR 2020/07/05 03:00 UTC NOAA

La Heve, France (LFOH) 49-31N 000-04E 103M
Jul 04, 2020 - 11:00 PM EDT / 2020.07.05 0300 UTC
Wind: from the WSW (240 degrees) at 13 MPH (11 KT):0
Visibility: greater than 7 mile(s):0
Sky conditions: overcast
Temperature: 62 F (17 C)
Dew Point: 60 F (16 C)
Relative Humidity: 93%
Pressure (altimeter): 29.97 in. Hg (1015 hPa)
ob: LFOH 050300Z AUTO 24011KT 9999 OVC009 17/16 Q1015
cycle: 3

Station Type Date Time Source
LFOH TAF 2020/07/04 18:32 UTC NOAA

TAF LFOH 041800Z 0418/0512 CNL

Example: see airport list